Latest  Newer  Older  Last 2 hours slideshow  Last 24 hours slideshow  Refresh every 5 minutes 
Current image  Latest image  Rain/snow radar  Cloud coverage sat images 

All time is UTC (add 2 hours to UTC in wintertime, 3 hours to UTC in DST for Latvia local time)

2021/09/21 02:20 EVRA 210220Z 01007KT 9999 BKN023 OVC043 06/04 Q1020 NOSIG
2021/09/21 02:20 EVLA 210220Z AUTO VRB02KT 9999 BKN036/// 01/01 Q1022
2021/09/21 02:20 EVVA 210220Z AUTO 36004KT 9999 FEW019 BKN027 BKN034 07/06 Q1022
2021/09/21 02:20 EYKA 210220Z 34006KT 290V020 9999 OVC010 06/03 Q1018

2021/09/21 02:20 EYSA 210220Z 34007KT 9999 BKN007 OVC024 05/04 Q1020 NOSIG
2021/09/21 02:20 EYVI 210220Z 34008KT 310V010 9999 OVC004 05/04 Q1016 NOSIG
2021/09/20 15:20 EEKA 201520Z 04011KT CAVOK 09/05 Q1023
2021/09/21 01:50 EEKE 210150Z AUTO 35004KT 9999NDV NSC 05/03 Q1022

2021/09/21 02:20 EETN 210220Z 03003KT 010V070 CAVOK 07/03 Q1022
2021/09/21 01:50 EETU 210150Z AUTO VRB03KT 9999 OVC021/// 05/02 Q1020
   RIGA AIRPORT     EVRA               56 55N  023 58E   10   X     T          6 LV
   LIEPAJA INTL     EVLA        26406  56 31N  021 06E    4   X                8 LV
   VENTPILS         EVVA               57 21N  021 33E    6   X                8 LV
   KAUNAS           EYKA               54 54N  023 55E   77   X     T          6 LT
   PALANGA INTL     EYPA               55 55N  021 03E   10   X                6 LT
   SIAULIAI INTL    EYSA               55 54N  023 24E  135   X     T          6 LT
   VILNIUS INTL     EYVI        26730  54 38N  025 17E  197   X     T          6 LT
   KARDLA           EEKA        26116  58 59N  022 50E    4   X                8 EE
   KURESSAARE       EEKE               58 14N  022 31E    4   X                8 EE
   PARNU            EEPU               58 25N  024 28E   14   X                8 EE
   TALLINN          EETN        26038  59 24N  024 49E   40   X     T          8 EE
   TARTU            EETU               58 19N  026 41E   67   X                8 EE